• Join FlightAware (Why Join?)
  • Login
  • US Flag GB Flag 
04:31 EDT


 

Airport Tracker/Info


-or-


 

Live Flight TrackerFlight Track Log ✈ UAL89 ✈ 19-Mar-2012 ✈ KEWR - ZBAA / PEK

Flight Track Log - Related Links

Times and Time Zones

All times are in EDT time to prevent confusion due to time zone crossing. See the UAL89 flight status page for this flight to view local times or setup timezone preferences in your user account.

Time Position Orientation Groundspeed Altitude Reporting Facility
EDT Latitude Longitude Course Direction KTS MPH feet Rate Location/Type
13:19 40.6500 -74.1833 229° Southwest 184 212 1,900  Level New York TRACON
13:20 40.6167 -74.2333 360° North 225 259 3,200 1,200 Climbing New York TRACON
13:21 40.7261 -74.2342 38° Northeast 277 319 5,300 1,140 Climbing FlightAware ADS-B
13:22 40.7483 -74.2115 46° Northeast 277 319 5,700 900 Climbing FlightAware ADS-B
13:22 40.7681 -74.1846 64° Northeast 278 320 6,000 1,020 Climbing FlightAware ADS-B
13:22 40.7715 -74.1753 73° East 282 325 6,200 2,520 Climbing FlightAware ADS-B
13:22 40.7750 -74.1605 82° East 284 327 6,600 2,820 Climbing FlightAware ADS-B
13:23 40.7769 -74.1432 93° East 284 327 7,100 2,760 Climbing FlightAware ADS-B
13:23 40.7766 -74.1364 98° East 283 326 7,300 3,000 Climbing FlightAware ADS-B
13:23 40.7758 -74.1290 102° East 283 326 7,500 2,220 Climbing FlightAware ADS-B
13:23 40.7747 -74.1223 105° East 285 328 7,600 1,860 Climbing FlightAware ADS-B
13:23 40.7693 -74.0961 105° East 290 334 8,100 2,340 Climbing FlightAware ADS-B
13:23 40.7667 -74.0832 96° East 290 334 8,500 2,640 Climbing FlightAware ADS-B
13:23 40.7653 -74.0654 83° East 290 334 8,900 1,860 Climbing FlightAware ADS-B
13:23 40.7663 -74.0544 75° East 292 336 9,000 1,380 Climbing FlightAware ADS-B
13:24 40.7689 -74.0419 69° East 296 341 9,200 1,740 Climbing FlightAware ADS-B
13:24 40.7738 -74.0253 67° East 300 345 9,500 1,320 Climbing FlightAware ADS-B
13:24 40.7833 -73.9957 60° Northeast 313 360 9,800 960 Climbing FlightAware ADS-B
13:24 40.7836 -73.9950 66° East 317 365 9,800  Level FlightAware ADS-B
13:24 40.7929 -73.9671 67° East 336 387 9,800  Level FlightAware ADS-B
13:24 40.7941 -73.9634 66° East 339 390 9,800 -360 Level FlightAware ADS-B
13:25 40.8046 -73.9324 67° East 360 414 9,700 -360 Descending FlightAware ADS-B
13:25 40.8056 -73.9293 66° East 360 414 9,700 360 Level FlightAware ADS-B
13:25 40.8152 -73.9005 67° East 365 420 9,800 300 Climbing FlightAware ADS-B
13:25 40.8170 -73.8949 64° Northeast 365 420 9,800 -600 Level FlightAware ADS-B
13:25 40.8231 -73.8780 60° Northeast 368 423 9,700 -420 Descending FlightAware ADS-B
13:25 40.8292 -73.8640 57° Northeast 368 423 9,700  Level FlightAware ADS-B
13:25 40.8306 -73.8612 45° Northeast 368 423 9,700 240 Level FlightAware ADS-B
13:25 40.8549 -73.8286 33° Northeast 370 426 9,800 240 Climbing FlightAware ADS-B
13:26 40.8585 -73.8255 32° Northeast 369 425 9,800 2,520 Level FlightAware ADS-B
13:26 40.9047 -73.7880 32° Northeast 371 427 11,300 2,340 Climbing FlightAware ADS-B
13:27 40.9540 -73.7471 32° Northeast 373 429 12,400 1,740 Climbing FlightAware ADS-B
13:27 41.0003 -73.7090 32° Northeast 381 438 13,200 1,320 Climbing FlightAware ADS-B
13:28 41.0540 -73.6649 32° Northeast 393 452 13,900 1,440 Climbing FlightAware ADS-B
13:28 41.1089 -73.6199 32° Northeast 410 472 14,900 1,800 Climbing FlightAware ADS-B
13:29 41.1593 -73.5787 32° Northeast 415 478 15,900 1,860 Climbing FlightAware ADS-B
13:29 41.2091 -73.5377 32° Northeast 416 479 16,800 1,740 Climbing FlightAware ADS-B
13:30 41.2612 -73.4948 32° Northeast 420 483 17,700 1,620 Climbing FlightAware ADS-B
13:31 41.3930 -73.3862 26° Northeast 424 488 19,800 1,380 Climbing FlightAware ADS-B
13:32 41.4464 -73.3511 North 417 480 20,400 1,140 Climbing Boston Center
13:33 41.5611 -73.3333 358° North 417 480 21,700 1,380 Climbing Boston Center
13:34 41.6842 -73.3381 359° North 417 480 23,200 1,320 Climbing Boston Center
13:35 41.8092 -73.3397 359° North 428 493 24,400 1,140 Climbing Boston Center
13:36 41.9319 -73.3414 North 439 505 25,500 1,080 Climbing Boston Center
13:37 42.0614 -73.3378 North 444 511 26,600 960 Climbing Boston Center
13:38 42.1928 -73.3228 North 456 525 27,500 900 Climbing Boston Center
13:39 42.3242 -73.3078 North 467 537 28,400 780 Climbing Boston Center
13:40 42.4597 -73.2817 North 478 550 29,100 780 Climbing Boston Center
13:41 42.5933 -73.2636 North 483 556 30,000 960 Climbing Boston Center
13:42 42.7228 -73.2428 26° Northeast 483 556 31,100 960 Climbing Boston Center
13:43 42.8483 -73.1594 25° Northeast 477 549 32,000 900 Climbing Boston Center
13:44 42.9864 -73.0731 26° Northeast 484 557 33,000 480 Climbing Boston Center
13:45 43.1078 -72.9917 18° North 484 557 33,000  Level Boston Center
13:46 43.2308 -72.9358 12° North 479 551 33,000  Level Boston Center
13:47 43.3622 -72.8969 North 479 551 33,000  Level Boston Center
13:48 43.4936 -72.8836 North 472 543 33,000  Level Boston Center
13:49 43.6250 -72.8675 North 472 543 33,000  Level Boston Center
13:50 43.7397 -72.8511 North 466 536 33,000  Level Boston Center
13:51 43.8689 -72.8317 North 466 536 33,000  Level Boston Center
13:52 44.0128 -72.8153 North 461 531 33,000  Level Boston Center
13:53 44.1419 -72.7989 North 461 531 33,000  Level Boston Center
13:54 44.2733 -72.7822 North 467 537 33,000  Level Boston Center
13:55 44.4025 -72.7656 North 467 537 33,000  Level Boston Center
13:56 44.5317 -72.7517 North 462 532 33,000  Level Boston Center
13:57 44.6608 -72.7347 North 467 537 33,000  Level Boston Center
13:58 44.7500 -72.7167 North 470 541 33,000  Level Montreal Center
13:59 44.8833 -72.7000 360° North 470 541 33,000  Level Montreal Center
14:00 45.0000 -72.7000 355° North 470 541 33,000  Level Montreal Center
14:01 45.1333 -72.7167 North 480 552 33,000  Level Montreal Center
14:02 45.2667 -72.7000 360° North 480 552 33,000  Level Montreal Center
14:03 45.4167 -72.7000 North 470 541 33,000  Level Montreal Center
14:04 45.5500 -72.6833 355° North 470 541 33,000  Level Montreal Center
14:05 45.6833 -72.7000 360° North 470 541 33,000  Level Montreal Center
14:06 45.8167 -72.7000 North 470 541 33,000  Level Montreal Center
14:07 45.9333 -72.6833 360° North 470 541 33,000  Level Montreal Center
14:08 46.0667 -72.6833 North 470 541 33,000  Level Montreal Center
14:09 46.2000 -72.6667 355° North 470 541 33,000  Level Montreal Center
14:10 46.3333 -72.6833 360° North 470 541 33,000  Level Montreal Center
14:11 46.4667 -72.6833 North 470 541 33,000  Level Montreal Center
14:12 46.5833 -72.6667 360° North 470 541 33,000  Level Montreal Center
14:13 46.7167 -72.6667 355° North 470 541 33,000  Level Montreal Center
14:14 46.8500 -72.6833 North 460 529 33,000  Level Montreal Center
14:15 46.9833 -72.6667 360° North 460 529 33,000  Level Montreal Center
14:16 47.1000 -72.6667 North 460 529 33,000  Level Montreal Center
14:17 47.2167 -72.6500 360° North 460 529 33,000  Level Montreal Center
14:18 47.3500 -72.6500 355° North 460 529 33,000  Level Montreal Center
14:19 47.4833 -72.6667 North 460 529 33,000  Level Montreal Center
14:20 47.6167 -72.6500 360° North 460 529 33,000  Level Montreal Center
14:21 47.7333 -72.6500 North 450 518 33,000  Level Montreal Center
14:22 47.8667 -72.6333 355° North 450 518 33,000  Level Montreal Center
14:23 47.9833 -72.6500 360° North 450 518 33,000  Level Montreal Center
14:24 48.1333 -72.6500 North 450 518 33,000  Level Montreal Center
14:25 48.2500 -72.6333 360° North 450 518 33,000  Level Montreal Center
14:26 48.3833 -72.6333 North 450 518 33,000  Level Montreal Center
14:27 48.5000 -72.6167 355° North 450 518 33,000  Level Montreal Center
14:28 48.6333 -72.6333 360° North 450 518 33,000  Level Montreal Center
14:29 48.7500 -72.6333 North 450 518 33,000  Level Montreal Center
14:30 48.8833 -72.6167 360° North 450 518 33,000  Level Montreal Center
14:31 49.0000 -72.6167 North 450 518 33,000  Level Montreal Center
14:32 49.1333 -72.6000 North 450 518 33,000  Level Montreal Center
14:33 49.2500 -72.5833 360° North 450 518 33,000  Level Montreal Center
14:34 49.3833 -72.5833 North 450 518 33,000  Level Montreal Center
14:35 49.5167 -72.5500 North 450 518 33,000  Level Montreal Center
14:36 49.6333 -72.5333 North 460 529 33,000  Level Montreal Center
14:37 49.7667 -72.5000 360° North 450 518 33,000  Level Montreal Center
14:38 49.8833 -72.5000 14° North 460 529 33,000  Level Montreal Center
14:39 50.0167 -72.4500 10° North 450 518 33,000  Level Montreal Center
14:40 50.1333 -72.4167 360° North 450 518 33,000  Level Montreal Center
14:41 50.2667 -72.4167 10° North 450 518 33,000  Level Montreal Center
14:42 50.3833 -72.3833 North 450 518 33,000  Level Montreal Center
14:43 50.5167 -72.3667 10° North 450 518 33,000  Level Montreal Center
14:44 50.6333 -72.3333 North 450 518 33,000  Level Montreal Center
14:45 50.7667 -72.3167 10° North 450 518 33,000  Level Montreal Center
14:46 50.8833 -72.2833 North 450 518 33,000  Level Montreal Center
14:47 51.0000 -72.2667 North 450 518 33,000  Level Montreal Center
14:48 51.1500 -72.2333 10° North 440 506 33,000  Level Montreal Center
14:49 51.2667 -72.2000 North 450 518 33,000  Level Montreal Center
14:50 51.4000 -72.1833 10° North 440 506 33,000  Level Montreal Center
14:51 51.5167 -72.1500 North 440 506 33,000  Level Montreal Center
14:52 51.6333 -72.1333 10° North 430 495 33,000  Level Montreal Center
14:53 51.7500 -72.1000 North 430 495 33,000  Level Montreal Center
14:54 51.8833 -72.0833 10° North 430 495 33,000  Level Montreal Center
14:55 52.0000 -72.0500 360° North 430 495 33,000  Level Montreal Center
14:56 52.1167 -72.0500 15° North 430 495 33,000  Level Montreal Center
14:57 52.2333 -72.0000 360° North 440 506 33,000  Level Montreal Center
14:58 52.3667 -72.0000 15° North 440 506 33,000  Level Montreal Center
14:59 52.4833 -71.9500 360° North 440 506 33,000  Level Montreal Center
15:00 52.6000 -71.9500 15° North 440 506 33,000  Level Montreal Center
15:01 52.7167 -71.9000 10° North 440 506 33,000  Level Montreal Center
15:02 52.8333 -71.8667 North 430 495 33,000  Level Montreal Center
15:03 52.9667 -71.8500 10° North 440 506 33,000  Level Montreal Center
15:04 53.0833 -71.8167 14° North 430 495 33,000  Level Montreal Center
15:05 53.2000 -71.7667 19° North 430 495 33,000  Level Montreal Center
15:06 53.3167 -71.7000 10° North 430 495 33,000  Level Montreal Center
15:07 53.4333 -71.6667 10° North 430 495 33,000  Level Montreal Center
15:08 53.5500 -71.6333 23° Northeast 430 495 33,000  Level Montreal Center
15:09 53.6667 -71.5500 10° North 430 495 33,000  Level Montreal Center
15:10 53.7833 -71.5167 10° North 430 495 33,000  Level Montreal Center
15:11 53.9000 -71.4833 14° North 430 495 33,000  Level Montreal Center
15:12 54.0167 -71.4333 19° North 430 495 33,000  Level Montreal Center
15:13 54.1333 -71.3667 14° North 430 495 33,000  Level Montreal Center
15:14 54.2500 -71.3167 North 430 495 33,000 300 Level Montreal Center
15:15 54.3833 -71.2833 21° North 430 495 33,600 960 Climbing Montreal Center
15:16 54.4833 -71.2167 16° North 420 483 35,000 660 Climbing Montreal Center
15:17 54.5833 -71.1667 14° North 410 472 35,000  Level Montreal Center
15:18 54.7000 -71.1167 11° North 410 472 35,000  Level Montreal Center
15:19 54.8000 -71.0833 14° North 410 472 35,000  Level Montreal Center
15:20 54.9167 -71.0333 11° North 400 460 35,000  Level Montreal Center
15:21 55.0167 -71.0000 14° North 400 460 35,000  Level Montreal Center
15:22 55.1333 -70.9500 18° North 410 472 35,000  Level Montreal Center
15:23 55.2500 -70.8833 14° North 410 472 35,000  Level Montreal Center
15:24 55.3667 -70.8333 11° North 410 472 35,000  Level Montreal Center
15:25 55.4667 -70.8000 14° North 410 472 35,000  Level Montreal Center
15:26 55.5833 -70.7500 22° Northeast 400 460 35,000  Level Montreal Center
15:27 55.7000 -70.6667 11° North 410 472 35,000  Level Montreal Center
15:28 55.8000 -70.6333 14° North 410 472 35,000  Level Montreal Center
15:29 55.9167 -70.5833 13° North 410 472 35,000  Level Montreal Center
15:30 56.0333 -70.5333 11° North 410 472 35,000  Level Montreal Center
15:31 56.1333 -70.5000 22° Northeast 410 472 35,000  Level Montreal Center
15:32 56.2500 -70.4167 15° North 410 472 35,000  Level Montreal Center
15:33 56.3500 -70.3667 13° North 410 472 35,000  Level Montreal Center
15:34 56.4667 -70.3167 North 410 472 35,000  Level Montreal Center
15:35 56.5833 -70.2833 13° North 400 460 35,000  Level Montreal Center
15:36 56.7000 -70.2333 15° North 400 460 35,000  Level Montreal Center
15:37 56.8000 -70.1833 24° Northeast 400 460 35,000  Level Montreal Center
15:38 56.9000 -70.1000 15° North 400 460 35,000  Level Montreal Center
15:39 57.0000 -70.0500 13° North 400 460 35,000  Level Montreal Center
15:40 57.1167 -70.0000 13° North 400 460 35,000  Level Montreal Center
15:41 57.2333 -69.9500 10° North 400 460 35,000  Level Montreal Center
15:42 57.3333 -69.9167 21° North 410 472 35,000  Level Montreal Center
15:43 57.4500 -69.8333 15° North 400 460 35,000  Level Montreal Center
15:44 57.5500 -69.7833 13° North 400 460 35,000  Level Montreal Center
15:45 57.6667 -69.7333 15° North 400 460 35,000  Level Montreal Center
15:46 57.7667 -69.6833 13° North 400 460 35,000  Level Montreal Center
15:47 57.8833 -69.6333 13° North 400 460 35,000  Level Montreal Center
15:48 58.0000 -69.5833 24° Northeast 400 460 35,000  Level Montreal Center
15:49 58.1000 -69.5000 15° North 400 460 35,000  Level Montreal Center
15:50 58.2000 -69.4500 17° North 400 460 35,000  Level Montreal Center
15:51 58.3167 -69.3833 13° North 400 460 35,000  Level Montreal Center
15:52 58.4333 -69.3333 24° Northeast 410 472 35,000  Level Montreal Center
15:53 58.5333 -69.2500 13° North 410 472 35,000  Level Montreal Center
15:54 58.6500 -69.2000 15° North 410 472 35,000  Level Montreal Center
15:55 58.7500 -69.1500 12° North 410 472 35,000  Level Montreal Center
15:56 58.8667 -69.1000 16° North 410 472 35,000  Level Montreal Center
15:57 58.9833 -69.0333 12° North 410 472 35,000  Level Montreal Center
15:58 59.1000 -68.9833 27° Northeast 410 472 35,000  Level Montreal Center
15:59 59.1833 -68.9000 12° North 410 472 35,000  Level Montreal Center
16:00 59.3000 -68.8500 16° North 410 472 35,000  Level Montreal Center
16:01 59.4167 -68.7833 14° North 410 472 35,000  Level Montreal Center
16:02 59.5167 -68.7333 16° North 410 472 35,000  Level Montreal Center
16:03 59.6333 -68.6667 12° North 420 483 35,000  Level Montreal Center
16:04 59.7500 -68.6167 20° North 420 483 35,000  Level Montreal Center
16:05 59.8667 -68.5333 14° North 430 495 35,000  Level Montreal Center
16:06 60.0000 -68.4667 18° North 430 495 35,000  Level Montreal Center
16:07 60.1000 -68.4000 20° North 420 483 35,000  Level Montreal Center
16:08 60.2167 -68.3167 16° North 430 495 35,000  Level Montreal Center
16:09 60.3333 -68.2500 16° North 430 495 35,000  Level Montreal Center
16:10 60.4500 -68.1833 12° North 430 495 35,000  Level Montreal Center
16:11 60.5667 -68.1333 16° North 440 506 35,000  Level Montreal Center
16:12 60.6833 -68.0667 26° Northeast 440 506 35,000  Level Montreal Center
16:13 60.7833 -67.9667 16° North 440 506 35,000  Level Montreal Center
16:14 60.9000 -67.9000 20° North 440 506 35,000  Level Montreal Center
16:15 61.0333 -67.8000 12° North 450 518 35,000  Level Montreal Center
16:16 61.1500 -67.7500 17° North 440 506 35,000  Level Montreal Center
16:17 61.2833 -67.6667 12° North 450 518 35,000  Level Montreal Center
16:18 61.4000 -67.6167 26° Northeast 450 518 35,000  Level Montreal Center
16:19 61.5000 -67.5167 15° North 450 518 35,000  Level Montreal Center
16:20 61.6167 -67.4500 16° North 450 518 35,000  Level Montreal Center
16:21 61.7500 -67.3667 15° North 450 518 35,000  Level Montreal Center
16:22 61.8667 -67.3000 19° North 450 518 35,000  Level Montreal Center
16:23 62.0000 -67.2000 17° North 460 529 35,000  Level Montreal Center
16:24 62.1000 -67.1333 22° Northeast 450 518 35,000  Level Montreal Center
16:25 62.2333 -67.0167 15° North 450 518 35,000  Level Montreal Center
16:26 62.3500 -66.9500 15° North 460 529 35,000  Level Montreal Center
16:27 62.4667 -66.8833 13° North 450 518 35,000  Level Montreal Center
16:28 62.6000 -66.8167 28° Northeast 450 518 35,000  Level Montreal Center
16:29 62.7000 -66.7000 15° North 460 529 35,000  Level Montreal Center
16:30 62.8167 -66.6333 16° North 450 518 35,000  Level Montreal Center
16:31 62.9500 -66.5500 24° Northeast 450 518 35,000  Level Montreal Center
16:32 63.0667 -66.4333 15° North 450 518 35,000  Level Montreal Center
16:34 63.3167 -66.2833 21° North 460 529 35,000  Level Montreal Center
16:35 63.4333 -66.1833 20° North 460 529 35,000  Level Montreal Center
16:36 63.5333 -66.1000 15° North 460 529 35,000  Level Montreal Center
16:37 63.6667 -66.0167 21° North 470 541 35,000  Level Montreal Center
16:38 63.8000 -65.9000 15° North 460 529 35,000  Level Montreal Center
16:39 63.9333 -65.8167 20° North 460 529 35,000  Level Montreal Center
16:40 64.0333 -65.7333 21° North 460 529 35,000  Level Montreal Center
16:41 64.1667 -65.6167 17° North 460 529 35,000  Level Montreal Center
16:42 64.2833 -65.5333 17° North 460 529 35,000  Level Montreal Center
16:43 64.4000 -65.4500 23° Northeast 470 541 35,000  Level Montreal Center
16:44 64.5167 -65.3333 19° North 470 541 35,000  Level Montreal Center
16:47 64.9000 -65.0167 17° North 460 529 35,000  Level Montreal Center
16:48 65.0167 -64.9333 17° North 470 541 35,000  Level Montreal Center
16:49 65.1333 -64.8500 17° North 470 541 35,000  Level Montreal Center
16:50 65.2667 -64.7500 21° North 470 541 35,000  Level Montreal Center
16:52 65.5000 -64.5333 17° North 470 541 35,000  Level Montreal Center
16:53 65.6333 -64.4333 16° North 470 541 35,000  Level Montreal Center
16:54 65.7500 -64.3500 25° Northeast 470 541 35,000  Level Montreal Center
16:55 65.8667 -64.2167 17° North 470 541 35,000  Level Montreal Center
16:56 66.0000 -64.1167 19° North 470 541 35,000  Level Montreal Center
16:57 66.1000 -64.0333 17° North 470 541 35,000  Level Montreal Center
16:58 66.2333 -63.9333 19° North 470 541 35,000  Level Montreal Center
16:59 66.3667 -63.8167 49° Northeast 470 541 35,000  Level Montreal Center
17:00 66.4833 -63.4833 24° Northeast 470 541 35,000  Level Edmonton Center
17:01 66.6000 -63.3500 22° Northeast 480 552 35,000  Level Edmonton Center
17:02 66.7167 -63.2333 16° North 470 541 35,000  Level Edmonton Center
17:03 66.8500 -63.1333 27° Northeast 470 541 35,000  Level Edmonton Center
17:04 66.9667 -62.9833 21° North 470 541 35,000  Level Edmonton Center
17:05 67.0833 -62.8667 16° North 470 541 35,000  Level Edmonton Center
17:06 67.2167 -62.7667 21° North 470 541 35,000  Level Edmonton Center
17:07 67.3333 -62.6500 19° North 470 541 35,000  Level Edmonton Center
17:08 67.4667 -62.5333 24° Northeast 480 552 35,000  Level Edmonton Center
17:09 67.5667 -62.4167 23° Northeast 480 552 35,000  Level Edmonton Center
17:10 67.7000 -62.2667 18° North 480 552 35,000  Level Edmonton Center
17:11 67.8333 -62.1500 27° Northeast 480 552 35,000  Level Edmonton Center
17:12 67.9333 -62.0167 18° North 480 552 35,000  Level Edmonton Center
17:13 68.0667 -61.9000 23° Northeast 480 552 35,000  Level Edmonton Center
17:14 68.1833 -61.7667 25° Northeast 480 552 35,000  Level Edmonton Center
17:15 68.3000 -61.6167 17° North 480 552 35,000  Level Edmonton Center
17:16 68.4167 -61.5167 22° Northeast 480 552 35,000  Level Edmonton Center
17:17 68.5500 -61.3667 20° North 480 552 35,000  Level Edmonton Center
17:18 68.6833 -61.2333 26° Northeast 480 552 35,000  Level Edmonton Center
17:19 68.7833 -61.1000 20° North 480 552 35,000  Level Edmonton Center
17:20 68.9167 -60.9667 24° Northeast 480 552 35,000  Level Edmonton Center
17:21 69.0500 -60.8000 17° North 480 552 35,000  Level Edmonton Center
17:22 69.1667 -60.7000 27° Northeast 480 552 35,000  Level Edmonton Center
17:23 69.2833 -60.5333 29° Northeast 480 552 35,000  Level Edmonton Center
17:24 69.4000 -60.3500 17° North 480 552 35,000  Level Edmonton Center
17:25 69.5167 -60.2500 24° Northeast 490 564 35,000  Level Edmonton Center
17:28 69.8833 -59.7833 21° North 490 564 35,000  Level Edmonton Center
17:29 70.0167 -59.6333 North 490 564 35,000  Level Edmonton Center
17:30 70.1500 -59.5833 12° North 490 564 35,000  Level Edmonton Center
17:31 70.2833 -59.5000 12° North 490 564 35,000  Level Edmonton Center
17:32 70.4167 -59.4167 360° North 490 564 35,000  Level Edmonton Center
17:33 70.5333 -59.4167 12° North 480 552 35,000  Level Edmonton Center
17:34 70.6667 -59.3333 North 480 552 35,000  Level Edmonton Center
17:35 70.8167 -59.2833 18° North 480 552 35,000  Level Edmonton Center
17:36 70.9167 -59.1833 North 480 552 35,000  Level Edmonton Center
17:44 71.9352 -58.7329 North  Level FlightAware Approximate
17:45 72.0646 -58.6721 North  Level FlightAware Approximate
17:46 72.1939 -58.6104 North  Level FlightAware Approximate
17:47 72.3233 -58.5479 North  Level FlightAware Approximate
17:48 72.4526 -58.4845 North  Level FlightAware Approximate
17:49 72.5819 -58.4201 North  Level FlightAware Approximate
17:50 72.7112 -58.3549 North  Level FlightAware Approximate
17:51 72.8405 -58.2886 North  Level FlightAware Approximate
17:52 72.9697 -58.2215 North  Level FlightAware Approximate
17:53 73.0989 -58.1533 North  Level FlightAware Approximate
17:54 73.2281 -58.0840 North  Level FlightAware Approximate
17:55 73.3573 -58.0138 North  Level FlightAware Approximate
17:56 73.4865 -57.9425 North  Level FlightAware Approximate
17:57 73.6156 -57.8701 North  Level FlightAware Approximate
17:58 73.7447 -57.7965 North  Level FlightAware Approximate
17:59 73.8738 -57.7219 North  Level FlightAware Approximate
18:00 74.0028 -57.6460 North  Level FlightAware Approximate
18:01 74.1319 -57.5690 North  Level FlightAware Approximate
18:02 74.2609 -57.4907 North  Level FlightAware Approximate
18:03 74.3898 -57.4111 North  Level FlightAware Approximate
18:04 74.5188 -57.3303 10° North  Level FlightAware Approximate
18:05 74.6477 -57.2482 10° North  Level FlightAware Approximate
18:06 74.7766 -57.1646 10° North  Level FlightAware Approximate
18:07 74.9054 -57.0798 12° North  Level FlightAware Approximate
18:08 75.0334 -56.9776 North  Level FlightAware Approximate
18:09 75.1624 -56.8943 North  Level FlightAware Approximate
18:10 75.2914 -56.8096 10° North  Level FlightAware Approximate
18:11 75.4203 -56.7235 10° North  Level FlightAware Approximate
18:12 75.5492 -56.6358 10° North  Level FlightAware Approximate
18:13 75.6780 -56.5466 10° North  Level FlightAware Approximate
18:14 75.8068 -56.4558 10° North  Level FlightAware Approximate
18:15 75.9356 -56.3633 10° North  Level FlightAware Approximate
18:16 76.0644 -56.2692 10° North  Level FlightAware Approximate
18:17 76.1931 -56.1734 10° North  Level FlightAware Approximate
18:18 76.3217 -56.0758 10° North  Level FlightAware Approximate
18:19 76.4504 -55.9764 10° North  Level FlightAware Approximate
18:20 76.5790 -55.8751 10° North  Level FlightAware Approximate
18:21 76.7075 -55.7719 11° North  Level FlightAware Approximate
18:22 76.8361 -55.6668 11° North  Level FlightAware Approximate
18:23 76.9645 -55.5596 11° North  Level FlightAware Approximate
18:24 77.0930 -55.4502 11° North  Level FlightAware Approximate
18:25 77.2213 -55.3388 11° North  Level FlightAware Approximate
18:26 77.3497 -55.2251 11° North  Level FlightAware Approximate
18:27 77.4780 -55.1091 11° North  Level FlightAware Approximate
18:28 77.6062 -54.9907 11° North  Level FlightAware Approximate
18:29 77.7344 -54.8700 11° North  Level FlightAware Approximate
18:30 77.8625 -54.7467 12° North  Level FlightAware Approximate
18:31 77.9905 -54.6208 12° North  Level FlightAware Approximate
18:32 78.1186 -54.4922 12° North  Level FlightAware Approximate
18:33 78.2465 -54.3609 12° North  Level FlightAware Approximate
18:34 78.3744 -54.2267 24° Northeast  Level FlightAware Approximate
18:35 78.4874 -53.9688 12° North  Level FlightAware Approximate
18:36 78.6155 -53.8355 12° North  Level FlightAware Approximate
18:37 78.7434 -53.6992 12° North  Level FlightAware Approximate
18:38 78.8714 -53.5598 12° North  Level FlightAware Approximate
18:39 78.9992 -53.4173 12° North  Level FlightAware Approximate
18:40 79.1270 -53.2714 12° North  Level FlightAware Approximate
18:41 79.2547 -53.1221 12° North  Level FlightAware Approximate
18:42 79.3823 -52.9692 13° North  Level FlightAware Approximate
18:43 79.5099 -52.8127 13° North  Level FlightAware Approximate
18:44 79.6374 -52.6523 13° North  Level FlightAware Approximate
18:45 79.7648 -52.4880 13° North  Level FlightAware Approximate
18:46 79.8921 -52.3197 26° Northeast  Level FlightAware Approximate
18:47 80.0090 -51.9877 13° North  Level FlightAware Approximate
18:48 80.1363 -51.8129 13° North  Level FlightAware Approximate
18:49 80.2634 -51.6336 14° North  Level FlightAware Approximate
18:50 80.3904 -51.4496 14° North  Level FlightAware Approximate
18:51 80.5174 -51.2607 14° North  Level FlightAware Approximate
18:52 80.6442 -51.0667 14° North  Level FlightAware Approximate
18:53 80.7710 -50.8674 14° North  Level FlightAware Approximate
18:54 80.8976 -50.6627 15° North  Level FlightAware Approximate
18:55 81.0241 -50.4522 15° North  Level FlightAware Approximate
18:56 81.1505 -50.2358 15° North  Level FlightAware Approximate
18:57 81.2767 -50.0131 15° North  Level FlightAware Approximate
18:58 81.4028 -49.7840 15° North  Level FlightAware Approximate
18:59 81.5288 -49.5481 16° North  Level FlightAware Approximate
19:00 81.6546 -49.3051 16° North  Level FlightAware Approximate
19:01 81.7803 -49.0548 16° North  Level FlightAware Approximate
19:02 81.9058 -48.7967 16° North  Level FlightAware Approximate
19:03 82.0312 -48.5306 17° North  Level FlightAware Approximate
19:04 82.1563 -48.2560 19° North  Level FlightAware Approximate
19:05 82.2800 -47.9473 17° North  Level FlightAware Approximate
19:06 82.4050 -47.6584 17° North  Level FlightAware Approximate
19:07 82.5297 -47.3599 18° North  Level FlightAware Approximate
19:08 82.6543 -47.0514 18° North  Level FlightAware Approximate
19:09 82.7786 -46.7323 18° North  Level FlightAware Approximate
19:10 82.9027 -46.4021 19° North  Level FlightAware Approximate
19:11 83.0266 -46.0602 19° North  Level FlightAware Approximate
19:12 83.1502 -45.7060 19° North  Level FlightAware Approximate
19:13 83.2735 -45.3388 20° North  Level FlightAware Approximate
19:14 83.3966 -44.9581 20° North  Level FlightAware Approximate
19:15 83.5193 -44.5629 20° North  Level FlightAware Approximate
19:16 83.6417 -44.1526 21° North  Level FlightAware Approximate
19:17 83.7638 -43.7263 21° North  Level FlightAware Approximate
19:18 83.8856 -43.2830 22° Northeast  Level FlightAware Approximate
19:19 84.0070 -42.8218 22° Northeast  Level FlightAware Approximate
19:20 84.1279 -42.3416 23° Northeast  Level FlightAware Approximate
19:21 84.2485 -41.8414 23° Northeast  Level FlightAware Approximate
19:22 84.3685 -41.3199 24° Northeast  Level FlightAware Approximate
19:23 84.4881 -40.7757 24° Northeast  Level FlightAware Approximate
19:24 84.6072 -40.2076 25° Northeast  Level FlightAware Approximate
19:25 84.7258 -39.6139 25° Northeast  Level FlightAware Approximate
19:26 84.8437 -38.9931 26° Northeast  Level FlightAware Approximate
19:27 84.9610 -38.3434 31° Northeast  Level FlightAware Approximate
19:28 85.0727 -37.5728 24° Northeast  Level FlightAware Approximate
19:29 85.1916 -36.9328 28° Northeast  Level Estimated
19:30 87.3354 -7.1554 57° Northeast  Level FlightAware Approximate
19:31 87.4035 -4.7245 60° Northeast  Level FlightAware Approximate
19:32 87.4668 -2.1674 62° Northeast  Level FlightAware Approximate
19:33 87.5248 0.5150 65° Northeast  Level FlightAware Approximate
19:34 87.5772 3.3196 68° East  Level FlightAware Approximate
19:35 87.6235 6.2405 71° East  Level FlightAware Approximate
19:36 87.6633 9.2692 74° East  Level FlightAware Approximate
19:37 87.6965 12.3939 77° East  Level FlightAware Approximate
19:38 87.7226 15.6000 80° East  Level FlightAware Approximate
19:39 87.7414 18.8699 83° East  Level FlightAware Approximate
19:40 87.7528 22.1838 88° East  Level FlightAware Approximate
19:41 87.7526 25.5117 90° East  Level FlightAware Approximate
19:42 87.7487 28.8421 93° East  Level FlightAware Approximate
19:43 87.7374 32.1501 97° East  Level FlightAware Approximate
19:44 87.7186 35.4142 100° East  Level FlightAware Approximate
19:45 87.6925 38.6148 103° East  Level FlightAware Approximate
19:46 87.6594 41.7345 106° East  Level FlightAware Approximate
19:47 87.6195 44.7585 109° East  Level FlightAware Approximate
19:48 87.5733 47.6752 112° Southeast  Level FlightAware Approximate
19:49 87.5210 50.4760 115° Southeast  Level FlightAware Approximate
19:50 87.4631 53.1552 118° Southeast  Level FlightAware Approximate
19:51 87.3999 55.7095 120° Southeast  Level FlightAware Approximate
19:52 87.3318 58.1381 123° Southeast  Level FlightAware Approximate
19:53 87.2591 60.4420 125° Southeast  Level FlightAware Approximate
19:54 87.1823 62.6237 127° Southeast  Level FlightAware Approximate
19:55 87.1015 64.6868 129° Southeast  Level FlightAware Approximate
19:56 87.0173 66.6358 131° Southeast  Level FlightAware Approximate
19:57 86.9297 68.4758 133° Southeast  Level FlightAware Approximate
19:58 86.8392 70.2122 135° Southeast  Level FlightAware Approximate
19:59 86.7460 71.8507 136° Southeast  Level FlightAware Approximate
20:00 86.6503 73.3968 138° Southeast  Level FlightAware Approximate
20:01 86.5522 74.8560 139° Southeast  Level FlightAware Approximate
20:02 86.4521 76.2339 141° Southeast  Level FlightAware Approximate
20:03 86.3500 77.5355 142° Southeast  Level FlightAware Approximate
20:04 86.2461 78.7657 143° Southeast  Level FlightAware Approximate
20:05 86.1406 79.9293 144° Southeast  Level FlightAware Approximate
20:06 86.0337 81.0307 145° Southeast  Level FlightAware Approximate
20:07 85.9253 82.0739 147° Southeast  Level FlightAware Approximate
20:08 85.8188 83.0349 145° Southeast  Level FlightAware Approximate
20:09 85.7141 84.0047 148° Southeast  Level FlightAware Approximate
20:10 85.6054 84.8715 149° Southeast  Level FlightAware Approximate
20:11 85.4957 85.6964 150° Southeast  Level FlightAware Approximate
20:12 85.3852 86.4819 151° Southeast  Level FlightAware Approximate
20:13 85.2738 87.2307 152° Southeast  Level FlightAware Approximate
20:14 85.1617 87.9449 152° Southeast  Level FlightAware Approximate
20:15 85.0488 88.6268 153° Southeast  Level FlightAware Approximate
20:16 84.9353 89.2783 154° Southeast  Level FlightAware Approximate
20:17 84.8212 89.9012 154° Southeast  Level FlightAware Approximate
20:18 84.7065 90.4972 155° Southeast  Level FlightAware Approximate
20:19 84.5912 91.0680 155° Southeast  Level FlightAware Approximate
20:20 84.4754 91.6149 156° South  Level FlightAware Approximate
20:21 84.3592 92.1395 157° South  Level FlightAware Approximate
20:22 84.2425 92.6429 157° South  Level FlightAware Approximate
20:23 84.1254 93.1263 158° South  Level FlightAware Approximate
20:24 84.0078 93.5908 158° South  Level FlightAware Approximate
20:25 83.8899 94.0375 158° South  Level FlightAware Approximate
20:26 83.7717 94.4673 159° South  Level FlightAware Approximate
20:27 83.6531 94.8812 159° South  Level FlightAware Approximate
20:28 83.5342 95.2799 160° South  Level FlightAware Approximate
20:29 83.4149 95.6643 160° South  Level FlightAware Approximate
20:30 83.2955 96.0350 161° South  Level FlightAware Approximate
20:31 83.1755 96.3878 161° South  Level FlightAware Approximate
20:32 83.0555 96.7334 161° South  Level FlightAware Approximate
20:33 82.9352 97.0674 161° South  Level FlightAware Approximate
20:34 82.8148 97.3902 162° South  Level FlightAware Approximate
20:35 82.6941 97.7024 162° South  Level FlightAware Approximate
20:36 82.5732 98.0045 162° South  Level FlightAware Approximate
20:37 82.4521 98.2970 163° South  Level FlightAware Approximate
20:38 82.3308 98.5803 163° South  Level FlightAware Approximate
20:39 82.2093 98.8548 163° South  Level FlightAware Approximate
20:40 82.0877 99.1209 163° South  Level FlightAware Approximate
20:41 81.9659 99.3791 164° South  Level FlightAware Approximate
20:42 81.8439 99.6295 164° South  Level FlightAware Approximate
20:43 81.7218 99.8726 164° South  Level FlightAware Approximate
20:44 81.5995 100.1087 164° South  Level FlightAware Approximate
20:45 81.4771 100.3381 165° South  Level FlightAware Approximate
20:46 81.3546 100.5610 165° South  Level FlightAware Approximate
20:47 81.2320 100.7777 165° South  Level FlightAware Approximate
20:48 81.1092 100.9885 165° South  Level FlightAware Approximate
20:49 80.9863 101.1936 166° South  Level FlightAware Approximate
20:50 80.8633 101.3932 166° South  Level FlightAware Approximate
20:51 80.7402 101.5876 166° South  Level FlightAware Approximate
20:52 80.6170 101.7769 166° South  Level FlightAware Approximate
20:53 80.4937 101.9613 166° South  Level FlightAware Approximate
20:54 80.3703 102.1411 166° South  Level FlightAware Approximate
20:55 80.2469 102.3163 167° South  Level FlightAware Approximate
20:56 80.1233 102.4872 167° South  Level FlightAware Approximate
20:57 79.9996 102.6540 167° South  Level FlightAware Approximate
20:58 79.8759 102.8167 167° South  Level FlightAware Approximate
20:59 79.7521 102.9754 167° South  Level FlightAware Approximate
21:00 79.6282 103.1305 167° South  Level FlightAware Approximate
21:01 79.5042 103.2819 168° South  Level FlightAware Approximate
21:02 79.3802 103.4298 168° South  Level FlightAware Approximate
21:03 79.2561 103.5744 168° South  Level FlightAware Approximate
21:04 79.1320 103.7157 168° South  Level FlightAware Approximate
21:05 79.0077 103.8538 168° South  Level FlightAware Approximate
21:06 78.8834 103.9889 168° South  Level FlightAware Approximate
21:07 78.7591 104.1210 168° South  Level FlightAware Approximate
21:08 78.6347 104.2503 169° South  Level FlightAware Approximate
21:09 78.5102 104.3768 169° South  Level FlightAware Approximate
21:10 78.3857 104.5007 169° South  Level FlightAware Approximate
21:11 78.2611 104.6219 169° South  Level FlightAware Approximate
21:12 78.1365 104.7406 169° South  Level FlightAware Approximate
21:13 78.0119 104.8569 169° South  Level FlightAware Approximate
21:14 77.8872 104.9709 169° South  Level FlightAware Approximate
21:15 77.7624 105.0825 169° South  Level FlightAware Approximate
21:16 77.6376 105.1920 169° South  Level FlightAware Approximate
21:17 77.5128 105.2992 170° South  Level FlightAware Approximate
21:18 77.3879 105.4044 170° South  Level FlightAware Approximate
21:19 77.2629 105.5076 170° South  Level FlightAware Approximate
21:20 77.1380 105.6088 170° South  Level FlightAware Approximate
21:21 77.0130 105.7080 170° South  Level FlightAware Approximate
21:22 76.8879 105.8055 170° South  Level FlightAware Approximate
21:23 76.7629 105.9010 170° South  Level FlightAware Approximate
21:24 76.6377 105.9949 170° South  Level FlightAware Approximate
21:25 76.5126 106.0870 170° South  Level FlightAware Approximate
21:26 76.3874 106.1775 170° South  Level FlightAware Approximate
21:27 76.2622 106.2663 171° South  Level FlightAware Approximate
21:28 76.1370 106.3536 171° South  Level FlightAware Approximate
21:29 76.0117 106.4394 171° South  Level FlightAware Approximate
21:30 75.8864 106.5236 171° South  Level FlightAware Approximate
21:31 75.7611 106.6064 171° South  Level FlightAware Approximate
21:32 75.6357 106.6878 171° South  Level FlightAware Approximate
21:33 75.5104 106.7678 171° South  Level FlightAware Approximate
21:34 75.3849 106.8461 171° South  Level FlightAware Approximate
21:35 75.2595 106.9232 171° South  Level FlightAware Approximate
21:36 75.1340 106.9990 171° South  Level FlightAware Approximate
21:37 75.0085 107.0736 171° South  Level FlightAware Approximate
21:38 74.8830 107.1469 171° South  Level FlightAware Approximate
21:39 74.7575 107.2191 171° South  Level FlightAware Approximate
21:40 74.6319 107.2901 172° South  Level FlightAware Approximate
21:41 74.5063 107.3600 172° South  Level FlightAware Approximate
21:42 74.3807 107.4288 172° South  Level FlightAware Approximate
21:43 74.2551 107.4965 172° South  Level FlightAware Approximate
21:44 74.1294 107.5632 172° South  Level FlightAware Approximate
21:45 74.0038 107.6289 172° South  Level FlightAware Approximate
21:46 73.8781 107.6935 172° South  Level FlightAware Approximate
21:47 73.7523 107.7572 172° South  Level FlightAware Approximate
21:48 73.6266 107.8200 172° South  Level FlightAware Approximate
21:49 73.5009 107.8818 172° South  Level FlightAware Approximate
21:50 73.3751 107.9427 172° South  Level FlightAware Approximate
21:51 73.2493 108.0027 172° South  Level FlightAware Approximate
21:52 73.1235 108.0618 172° South  Level FlightAware Approximate
21:53 72.9977 108.1201 172° South  Level FlightAware Approximate
21:54 72.8719 108.1776 172° South  Level FlightAware Approximate
21:55 72.7460 108.2342 172° South  Level FlightAware Approximate
21:56 72.6201 108.2901 173° South  Level FlightAware Approximate
21:57 72.4943 108.3451 173° South  Level FlightAware Approximate
21:58 72.3684 108.3994 173° South  Level FlightAware Approximate
21:59 72.2425 108.4530 173° South  Level FlightAware Approximate
22:00 72.1165 108.5058 173° South  Level FlightAware Approximate
22:01 71.9906 108.5580 173° South  Level FlightAware Approximate
22:02 71.8646 108.6094 173° South  Level FlightAware Approximate
22:03 71.7387 108.6601 173° South  Level FlightAware Approximate
22:04 71.6127 108.7102 173° South  Level FlightAware Approximate
22:05 71.4867 108.7596 173° South  Level FlightAware Approximate
22:06 71.3607 108.8083 173° South  Level FlightAware Approximate
22:07 71.2347 108.8565 173° South  Level FlightAware Approximate
22:08 71.1087 108.9040 173° South  Level FlightAware Approximate
22:09 70.9826 108.9509 173° South  Level FlightAware Approximate
22:10 70.8566 108.9972 173° South  Level FlightAware Approximate
22:11 70.7305 109.0429 173° South  Level FlightAware Approximate
22:12 70.6044 109.0881 173° South  Level FlightAware Approximate
22:13 70.4783 109.1327 173° South  Level FlightAware Approximate
22:14 70.3522 109.1767 173° South  Level FlightAware Approximate
22:15 70.2261 109.2202 173° South  Level FlightAware Approximate
22:16 70.1000 109.2632 173° South  Level FlightAware Approximate
22:17 69.9739 109.3056 173° South  Level FlightAware Approximate
22:18 69.8477 109.3476 174° South  Level FlightAware Approximate
22:19 69.7216 109.3890 174° South  Level FlightAware Approximate
22:20 69.5955 109.4299 174° South  Level FlightAware Approximate
22:21 69.4693 109.4704 174° South  Level FlightAware Approximate
22:22 69.3431 109.5104 174° South  Level FlightAware Approximate
22:23 69.2169 109.5499 174° South  Level FlightAware Approximate
22:24 69.0907 109.5890 174° South  Level FlightAware Approximate
22:25 68.9645 109.6276 174° South  Level FlightAware Approximate
22:26 68.8383 109.6658 174° South  Level FlightAware Approximate
22:27 68.7121 109.7036 174° South  Level FlightAware Approximate
22:28 68.5859 109.7409 174° South  Level FlightAware Approximate
22:29 68.4596 109.7778 174° South  Level FlightAware Approximate
22:30 68.3334 109.8143 174° South  Level FlightAware Approximate
22:31 68.2071 109.8504 174° South  Level FlightAware Approximate
22:32 68.0808 109.8861 174° South  Level FlightAware Approximate
22:33 67.9546 109.9215 172° South  Level FlightAware Approximate
22:34 67.8288 109.9679 174° South  Level FlightAware Approximate
22:35 67.7026 110.0021 174° South  Level FlightAware Approximate
22:36 67.5762 110.0360 174° South  Level FlightAware Approximate
22:37 67.4499 110.0695 174° South  Level FlightAware Approximate
22:38 67.3236 110.1026 174° South  Level FlightAware Approximate
22:39 67.1973 110.1354 174° South  Level FlightAware Approximate
22:40 67.0710 110.1678 174° South  Level FlightAware Approximate
22:41 66.9446 110.2000 174° South  Level FlightAware Approximate
22:42 66.8183 110.2317 174° South  Level FlightAware Approximate
22:43 66.6919 110.2632 174° South  Level FlightAware Approximate
22:44 66.5656 110.2943 174° South  Level FlightAware Approximate
22:45 66.4392 110.3252 175° South  Level FlightAware Approximate
22:46 66.3128 110.3547 174° South  Level FlightAware Approximate
22:47 66.1865 110.3849 175° South  Level FlightAware Approximate
22:48 66.0601 110.4149 175° South  Level FlightAware Approximate
22:49 65.9337 110.4445 175° South  Level FlightAware Approximate
22:50 65.8073 110.4739 175° South  Level FlightAware Approximate
22:51 65.6809 110.5030 176° South  Level FlightAware Approximate
22:52 65.5543 110.5234 175° South  Level FlightAware Approximate
22:53 65.4279 110.5525 175° South  Level FlightAware Approximate
22:54 65.3015 110.5813 175° South  Level FlightAware Approximate
22:55 65.1751 110.6098 175° South  Level FlightAware Approximate
22:56 65.0487 110.6381 175° South  Level FlightAware Approximate
22:57 64.9223 110.6661 175° South  Level FlightAware Approximate
22:58 64.7959 110.6938 175° South  Level FlightAware Approximate
22:59 64.6695 110.7213 175° South  Level FlightAware Approximate
23:00 64.5431 110.7486 175° South  Level FlightAware Approximate
23:01 64.4166 110.7755 175° South  Level FlightAware Approximate
23:02 64.2902 110.8023 175° South  Level FlightAware Approximate
23:03 64.1638 110.8288 175° South  Level FlightAware Approximate
23:04 64.0373 110.8550 175° South  Level FlightAware Approximate
23:05 63.9109 110.8810 175° South  Level FlightAware Approximate
23:06 63.7844 110.9068 175° South  Level FlightAware Approximate
23:12 63.0088 111.0600 175° South  Level FlightAware Approximate
23:13 62.8823 111.0842 175° South  Level FlightAware Approximate
23:14 62.7558 111.1082 175° South  Level FlightAware Approximate
23:15 62.6293 111.1320 176° South  Level FlightAware Approximate
23:16 62.5027 111.1516 175° South  Level FlightAware Approximate
23:17 62.3762 111.1748 175° South  Level FlightAware Approximate
23:18 62.2497 111.1978 175° South  Level FlightAware Approximate
23:19 62.1232 111.2207 175° South  Level FlightAware Approximate
23:20 61.9967 111.2433 175° South  Level FlightAware Approximate
23:21 61.8702 111.2658 175° South  Level FlightAware Approximate
23:22 61.7437 111.2880 175° South  Level FlightAware Approximate
23:23 61.6171 111.3101 175° South  Level FlightAware Approximate
23:24 61.4906 111.3320 175° South  Level FlightAware Approximate
23:25 61.3641 111.3538 175° South  Level FlightAware Approximate
23:26 61.2375 111.3753 175° South  Level FlightAware Approximate
23:27 61.1110 111.3967 175° South  Level FlightAware Approximate
23:28 60.9845 111.4179 175° South  Level FlightAware Approximate
23:29 60.8579 111.4389 175° South  Level FlightAware Approximate
23:30 60.7314 111.4598 175° South  Level FlightAware Approximate
23:31 60.6048 111.4805 175° South  Level FlightAware Approximate
23:32 60.4782 111.5011 174° South  Level FlightAware Approximate
23:33 60.3520 111.5272 175° South  Level FlightAware Approximate
23:34 60.2254 111.5473 176° South  Level FlightAware Approximate
23:35 60.0988 111.5672 176° South  Level FlightAware Approximate
23:36 59.9723 111.5870 176° South  Level FlightAware Approximate
23:37 59.8457 111.6067 176° South  Level FlightAware Approximate
23:38 59.7191 111.6261 176° South  Level FlightAware Approximate
23:39 59.5925 111.6455 176° South  Level FlightAware Approximate
23:40 59.4660 111.6647 176° South  Level FlightAware Approximate
23:41 59.3394 111.6837 176° South  Level FlightAware Approximate
23:42 59.2128 111.7026 176° South  Level FlightAware Approximate
23:43 59.0862 111.7214 176° South  Level FlightAware Approximate
23:44 58.9596 111.7400 176° South  Level FlightAware Approximate
23:45 58.8330 111.7585 176° South  Level FlightAware Approximate
23:46 58.7064 111.7769 176° South  Level FlightAware Approximate
23:47 58.5798 111.7951 176° South  Level FlightAware Approximate
23:48 58.4532 111.8132 176° South  Level FlightAware Approximate
23:49 58.3266 111.8312 174° South  Level FlightAware Approximate
23:50 58.2002 111.8546 176° South  Level FlightAware Approximate
23:51 58.0736 111.8722 176° South  Level FlightAware Approximate
23:52 57.9470 111.8897 176° South  Level FlightAware Approximate
23:53 57.8204 111.9071 176° South  Level FlightAware Approximate
23:54 57.6937 111.9244 176° South  Level FlightAware Approximate
23:55 57.5671 111.9415 176° South  Level FlightAware Approximate
23:56 57.4405 111.9585 176° South  Level FlightAware Approximate
23:57 57.3138 111.9754 176° South  Level FlightAware Approximate
23:58 57.1872 111.9922 176° South  Level FlightAware Approximate
23:59 57.0606 112.0089 176° South  Level FlightAware Approximate
00:00 56.9339 112.0255 176° South  Level FlightAware Approximate
00:01 56.8073 112.0419 176° South  Level FlightAware Approximate
00:02 56.6807 112.0583 176° South  Level FlightAware Approximate
00:03 56.5540 112.0745 176° South  Level FlightAware Approximate
00:04 56.4274 112.0906 176° South  Level FlightAware Approximate
00:05 56.3007 112.1066 176° South  Level FlightAware Approximate
00:06 56.1741 112.1226 176° South  Level FlightAware Approximate
00:07 56.0474 112.1384 176° South  Level FlightAware Approximate
00:08 55.9208 112.1541 176° South  Level FlightAware Approximate
00:09 55.7941 112.1697 176° South  Level FlightAware Approximate
00:10 55.6674 112.1852 176° South  Level FlightAware Approximate
00:11 55.5408 112.2006 176° South  Level FlightAware Approximate
00:12 55.4141 112.2159 176° South  Level FlightAware Approximate
00:13 55.2875 112.2311 176° South  Level FlightAware Approximate
00:14 55.1608 112.2462 176° South  Level FlightAware Approximate
00:15 55.0341 112.2612 176° South  Level FlightAware Approximate
00:16 54.9075 112.2761 176° South  Level FlightAware Approximate
00:17 54.7808 112.2909 176° South  Level FlightAware Approximate
00:18 54.6541 112.3056 176° South  Level FlightAware Approximate
00:19 54.5275 112.3203 176° South  Level FlightAware Approximate
00:20 54.4008 112.3348 177° South  Level FlightAware Approximate
00:21 54.2741 112.3459 176° South  Level FlightAware Approximate
00:22 54.1474 112.3605 176° South  Level FlightAware Approximate
00:23 54.0207 112.3751 176° South  Level FlightAware Approximate
00:24 53.8941 112.3896 176° South  Level FlightAware Approximate
00:25 53.7674 112.4040 176° South  Level FlightAware Approximate
00:26 53.6407 112.4184 176° South  Level FlightAware Approximate
00:27 53.5140 112.4326 176° South  Level FlightAware Approximate
00:28 53.3874 112.4467 176° South  Level FlightAware Approximate
00:29 53.2607 112.4608 176° South  Level FlightAware Approximate
00:30 53.1340 112.4748 176° South  Level FlightAware Approximate
00:31 53.0073 112.4887 176° South  Level FlightAware Approximate
00:32 52.8806 112.5025 176° South  Level FlightAware Approximate
00:33 52.7539 112.5163 176° South  Level FlightAware Approximate
00:34 52.6273 112.5299 176° South  Level FlightAware Approximate
00:35 52.5006 112.5435 176° South  Level FlightAware Approximate
00:36 52.3739 112.5570 176° South  Level FlightAware Approximate
00:37 52.2472 112.5704 176° South  Level FlightAware Approximate
00:38 52.1205 112.5838 176° South  Level FlightAware Approximate
00:39 51.9938 112.5971 176° South  Level FlightAware Approximate
00:40 51.8671 112.6103 176° South  Level FlightAware Approximate
00:41 51.7404 112.6234 176° South  Level FlightAware Approximate
00:42 51.6137 112.6364 176° South  Level FlightAware Approximate
00:43 51.4870 112.6494 176° South  Level FlightAware Approximate
00:44 51.3603 112.6623 176° South  Level FlightAware Approximate
00:45 51.2336 112.6751 176° South  Level FlightAware Approximate
00:46 51.1069 112.6879 176° South  Level FlightAware Approximate
00:47 50.9802 112.7006 176° South  Level FlightAware Approximate
00:48 50.8535 112.7132 176° South  Level FlightAware Approximate
00:49 50.7267 112.7258 176° South  Level FlightAware Approximate
00:50 50.6000 112.7383 176° South  Level FlightAware Approximate
00:51 50.4733 112.7507 176° South  Level FlightAware Approximate
00:52 50.3466 112.7631 176° South  Level FlightAware Approximate
00:53 50.2199 112.7754 176° South  Level FlightAware Approximate
00:54 50.0932 112.7876 176° South  Level FlightAware Approximate
00:55 49.9665 112.7998 176° South  Level FlightAware Approximate
00:56 49.8397 112.8119 176° South  Level FlightAware Approximate
00:57 49.7130 112.8239 176° South  Level FlightAware Approximate
00:58 49.5863 112.8359 177° South  Level FlightAware Approximate
00:59 49.4596 112.8478 177° South  Level FlightAware Approximate
01:00 49.3329 112.8596 177° South  Level FlightAware Approximate
01:01 49.2061 112.8714 177° South  Level FlightAware Approximate
01:02 49.0794 112.8831 177° South  Level FlightAware Approximate
01:03 48.9527 112.8948 177° South  Level FlightAware Approximate
01:04 48.8259 112.9064 177° South  Level FlightAware Approximate
01:05 48.6992 112.9180 179° South  Level FlightAware Approximate
01:06 48.5723 112.9207 179° South  Level FlightAware Approximate
01:07 48.4454 112.9255 179° South  Level FlightAware Approximate
01:08 48.3185 112.9304 179° South  Level FlightAware Approximate
01:09 48.1916 112.9352 179° South  Level FlightAware Approximate
01:10 48.0647 112.9400 179° South  Level FlightAware Approximate
01:11 47.9377 112.9447 179° South  Level FlightAware Approximate
01:12 47.8108 112.9495 179° South  Level FlightAware Approximate
01:13 47.6839 112.9542 179° South  Level FlightAware Approximate
01:14 47.5570 112.9589 179° South  Level FlightAware Approximate
01:15 47.4301 112.9635 179° South  Level FlightAware Approximate
01:16 47.3031 112.9682 179° South  Level FlightAware Approximate
01:17 47.1762 112.9728 179° South  Level FlightAware Approximate
01:18 47.0493 112.9774 179° South  Level FlightAware Approximate
01:19 46.9224 112.9820 179° South  Level FlightAware Approximate
01:20 46.7955 112.9866 148° Southeast  Level FlightAware Approximate
01:21 46.6893 113.0843 179° South  Level FlightAware Approximate
01:22 46.5623 113.0862 179° South  Level FlightAware Approximate
01:23 46.4354 113.0880 179° South  Level FlightAware Approximate
01:24 46.3084 113.0899 179° South  Level FlightAware Approximate
01:25 46.1815 113.0917 179° South  Level FlightAware Approximate
01:26 46.0545 113.0935 179° South  Level FlightAware Approximate
01:27 45.9276 113.0954 179° South  Level FlightAware Approximate
01:28 45.8006 113.0972 179° South  Level FlightAware Approximate
01:29 45.6737 113.0990 179° South  Level FlightAware Approximate
01:30 45.5467 113.1008 179° South  Level FlightAware Approximate
01:31 45.4198 113.1025 179° South  Level FlightAware Approximate
01:32 45.2928 113.1043 179° South  Level FlightAware Approximate
01:33 45.1659 113.1061 179° South  Level FlightAware Approximate
01:34 45.0389 113.1079 179° South  Level FlightAware Approximate
01:35 44.9120 113.1096 179° South  Level FlightAware Approximate
01:36 44.7850 113.1114 151° Southeast  Level FlightAware Approximate
01:37 44.6740 113.1979 151° Southeast  Level FlightAware Approximate
01:38 44.5628 113.2842 151° Southeast  Level FlightAware Approximate
01:39 44.4516 113.3701 151° Southeast  Level FlightAware Approximate
01:40 44.3404 113.4557 151° Southeast  Level FlightAware Approximate
01:41 44.2290 113.5409 151° Southeast  Level FlightAware Approximate
01:42 44.1176 113.6258 151° Southeast  Level FlightAware Approximate
01:43 44.0062 113.7104 151° Southeast  Level FlightAware Approximate
01:44 43.8947 113.7947 151° Southeast  Level FlightAware Approximate
01:45 43.7831 113.8787 152° Southeast  Level FlightAware Approximate
01:46 43.6715 113.9624 152° Southeast  Level FlightAware Approximate
01:47 43.5598 114.0457 152° Southeast  Level FlightAware Approximate
01:48 43.4476 114.1291 152° Southeast  Level FlightAware Approximate
01:49 43.3352 114.2122 152° Southeast  Level FlightAware Approximate
01:50 43.2228 114.2951 152° Southeast  Level FlightAware Approximate
01:51 43.1103 114.3776 152° Southeast  Level FlightAware Approximate
01:52 42.9977 114.4599 152° Southeast  Level FlightAware Approximate
01:53 42.8851 114.5418 152° Southeast  Level FlightAware Approximate
01:54 42.7724 114.6234 152° Southeast  Level FlightAware Approximate
01:55 42.6597 114.7048 152° Southeast  Level FlightAware Approximate
01:56 42.5469 114.7858 152° Southeast  Level FlightAware Approximate
01:57 42.4340 114.8666 152° Southeast  Level FlightAware Approximate
01:58 42.3211 114.9470 152° Southeast  Level FlightAware Approximate
01:59 42.2082 115.0272 152° Southeast  Level FlightAware Approximate
02:00 42.0952 115.1071 152° Southeast  Level FlightAware Approximate
02:01 41.9821 115.1867 152° Southeast  Level FlightAware Approximate
02:02 41.8690 115.2660 152° Southeast  Level FlightAware Approximate
02:03 41.7558 115.3451 153° Southeast  Level FlightAware Approximate
02:04 41.6426 115.4238 153° Southeast  Level FlightAware Approximate
02:05 41.5293 115.5023 153° Southeast  Level FlightAware Approximate
02:06 41.4160 115.5805 153° Southeast  Level FlightAware Approximate
02:07 41.3026 115.6585 153° Southeast  Level FlightAware Approximate
02:08 41.1891 115.7361 153° Southeast  Level FlightAware Approximate
02:09 41.0756 115.8135 153° Southeast  Level FlightAware Approximate
02:10 40.9621 115.8907 153° Southeast  Level FlightAware Approximate
02:11 40.8485 115.9675 153° Southeast  Level FlightAware Approximate
02:12 40.7348 116.0441 153° Southeast  Level FlightAware Approximate
02:13 40.6211 116.1205 153° Southeast  Level FlightAware Approximate
02:14 40.5074 116.1965 153° Southeast  Level FlightAware Approximate
02:15 40.3936 116.2724 153° Southeast  Level FlightAware Approximate
02:16 40.2797 116.3479 153° Southeast  Level FlightAware Approximate
02:17 40.1658 116.4233 136° Southeast  Level FlightAware Approximate
02:18 40.0816 116.5313 92° East  Level FlightAware Approximate
02:19 40.0770 116.6965 292° West  Level Estimated
02:20 40.9571 113.7006 111° Southeast  Level FlightAware Approximate
02:21 40.9111 113.8566 111° Southeast  Level FlightAware Approximate
02:22 40.8649 114.0123 111° Southeast  Level FlightAware Approximate
02:23 40.8185 114.1678 112° Southeast  Level FlightAware Approximate
02:24 40.7719 114.3231 112° Southeast  Level FlightAware Approximate
02:25 40.7250 114.4782 112° Southeast  Level FlightAware Approximate
02:26 40.6780 114.6331 112° Southeast  Level FlightAware Approximate
02:27 40.6307 114.7878 112° Southeast  Level FlightAware Approximate
02:28 40.5833 114.9422 112° Southeast  Level FlightAware Approximate
02:29 40.5356 115.0964 112° Southeast  Level FlightAware Approximate
02:30 40.4877 115.2504 112° Southeast  Level FlightAware Approximate
02:31 40.4397 115.4042 112° Southeast  Level FlightAware Approximate
02:32 40.3914 115.5577 112° Southeast  Level FlightAware Approximate
02:33 40.3429 115.7111 113° Southeast  Level FlightAware Approximate
02:34 40.2942 115.8642 113° Southeast  Level FlightAware Approximate
02:35 40.2453 116.0171 113° Southeast  Level FlightAware Approximate
02:36 40.1962 116.1697 113° Southeast  Level FlightAware Approximate
02:37 40.1470 116.3222 113° Southeast  Level FlightAware Approximate
02:38 40.0978 116.4746 102° East  Level FlightAware Approximate
02:39 40.0718 116.6364 282° West  Level Estimated
02:40 40.0978 116.4746 102° East  Level Estimated
02:41 40.0718 116.6364 282° West  Level Estimated
02:42 40.0978 116.4746 102° East  Level Estimated
02:43 40.0718 116.6364 282° West  Level Estimated
02:44 40.0978 116.4746 110° East  Level Estimated
02:45 40.0667 116.5833 North  Level FlightAware Approximate
02:46 40.1928 116.5949 184° South  Level Estimated
02:47 40.0667 116.5833 North  Level FlightAware Approximate
02:48 40.1928 116.5949 184° South  Level Estimated
02:49 40.0667 116.5833 184° South  Level FlightAware Approximate